Harrisville, MI (48740)

4:25 PM EDT on September 02, 2015 (GMT -0400)
KMIOSCOD3 | | Change Station
CLOSE
Current Station
Personal Weather Station
Location: On the Beach , North of Oscoda, MI
Elevation: 582 ft
Nearby Weather Stations

Elev 582 ft 44.51 °N, 83.32 °W | Updated 33 seconds ago

Mostly Cloudy
Mostly Cloudy
72.3 °F
Feels Like 72 °F
N
8.7
Wind Variable Wind from SSW
Gusts 8.9 mph

Today
High -- | Low -- °F
--% Chance of Precip.
Yesterday
High -- | Low -- °F
Precip. -- in
6:56 AM 8:08 PM
Waning Gibbous, 77% visible
Pressure 29.92 in
Visibility 10.0 miles
Clouds Scattered Clouds 4800 ft
Heat Index 72 °F
Dew Point 66 °F
Humidity 82%
Rainfall 0.00 in
Snow Depth Not available.
UV 4 out of 12
Pollen 10.20 out of 12
Air Quality Not available.
Flu Activity Not available.
METAR KOSC 022013Z AUTO 16007KT 10SM SCT048 31/22 A2992 RMK AO2 T03060222
Pressure 29.92 in
Visibility 10.0 miles
Clouds Scattered Clouds 4800 ft
Heat Index 72 °F
Dew Point 66 °F
Humidity 82%
Rainfall 0.00 in
Snow Depth Not available.
UV 4 out of 12
Pollen 10.20 out of 12
Air Quality Not available.
Flu Activity Not available.
METAR KOSC 022013Z AUTO 16007KT 10SM SCT048 31/22 A2992 RMK AO2 T03060222
Nowcast | as of 4:00 PM EDT on September 2, 2015

At 5 PM...partly cloudy. Scattered thunderstorms. Temperature 80. East winds 7 mph. At 7 PM...partly cloudy. Scattered thunderstorms. Temperature 76. East winds 6 mph. At 9 PM...partly cloudy. Temperature 71. Light winds. At 11 PM...partly cloudy. Temperature 70. Light winds.

×

10-Day Weather Forecast

×

Almanac

Astronomy

Sep. 02, 2015 Rise Set
Actual Time
Civil Twilight
Nautical Twilight
Astronomical Twilight
Moon
Length of Visible Light
Length of Day
Tomorrow will be .
, % of the Moon is Illuminated

Today's Extremes

State Highs State Lows

Community

WunderPhotos

Upload Photos

1,851,804 photos uploaded!

WunderBlogs® & News

Nearby

Air Quality

  Air Quality AQ Index Pollutant
Not available.

Snow Depth

Station Depth Elevation

Earthquake Activity

City Distance Mag. Time & Date
Minimum magnitude displayed is 2.5.

Coastal Water Temperatures

Place Temperature

Stations

Nearby Weather Stations

Station Location Temp. Windchill Dew Point Humidity Wind Precip. Elev Updated Type